Time;durP1;ratioP1;P1;durP2;ratioP2;P2;SDS_P1;SDS_P2;PMS_P1;PMS_P2;Temp;Humidity;BMP_temperature;BMP_pressure;BME280_temperature;BME280_humidity;BME280_pressure;Samples;Min_cycle;Max_cycle;Signal;HPM_P1;HPM_P2
2023/09/03 00:01:44;;;;;;;3.65;2.25;;;17.40;99.90;;;;;;5113918;28;20024;-74
2023/09/03 00:04:10;;;;;;;3.25;2.10;;;17.40;99.90;;;;;;5114870;28;20061;-74
2023/09/03 00:06:36;;;;;;;4.32;2.10;;;17.40;99.90;;;;;;5114983;28;20027;-74
2023/09/03 00:09:04;;;;;;;4.05;2.13;;;17.40;99.90;;;;;;5114637;28;20484;-74
2023/09/03 00:11:30;;;;;;;5.00;2.35;;;17.40;99.90;;;;;;5115111;28;20067;-74
2023/09/03 00:13:56;;;;;;;3.22;2.00;;;17.30;99.90;;;;;;5114544;28;20523;-74
2023/09/03 00:16:22;;;;;;;3.30;2.30;;;17.30;99.90;;;;;;5114902;28;20028;-73
2023/09/03 00:18:47;;;;;;;3.20;2.15;;;17.30;99.90;;;;;;5115121;28;20019;-73
2023/09/03 00:21:14;;;;;;;2.92;1.90;;;17.30;99.90;;;;;;5114638;28;20073;-73
2023/09/03 00:23:39;;;;;;;3.35;2.30;;;17.20;99.90;;;;;;5114893;28;20103;-74
2023/09/03 00:26:05;;;;;;;4.32;2.17;;;17.20;99.90;;;;;;5096113;28;20114;-73
2023/09/03 00:28:31;;;;;;;4.38;2.33;;;17.20;99.90;;;;;;5096006;28;20042;-74
2023/09/03 00:31:00;;;;;;;3.90;2.50;;;17.10;99.90;;;;;;5114738;28;20016;-73
2023/09/03 00:33:27;;;;;;;5.47;2.60;;;17.00;99.90;;;;;;5114239;28;20525;-74
2023/09/03 00:35:53;;;;;;;4.25;2.50;;;16.90;99.90;;;;;;5114229;28;20027;-74
2023/09/03 00:38:19;;;;;;;3.55;2.40;;;16.70;99.90;;;;;;5114526;28;20472;-74
2023/09/03 00:40:45;;;;;;;6.63;2.60;;;16.70;99.90;;;;;;5114038;28;20494;-74
2023/09/03 00:43:10;;;;;;;3.45;2.40;;;16.70;99.90;;;;;;5114175;28;20114;-74
2023/09/03 00:45:36;;;;;;;2.78;2.08;;;16.70;99.90;;;;;;5113975;28;20027;-73
2023/09/03 00:48:02;;;;;;;3.42;2.25;;;16.70;99.90;;;;;;5114005;28;20035;-74
2023/09/03 00:50:29;;;;;;;3.75;2.03;;;16.70;99.90;;;;;;5095707;28;20055;-73
2023/09/03 00:52:55;;;;;;;4.47;2.17;;;16.60;99.90;;;;;;5113990;28;20422;-74
2023/09/03 00:55:22;;;;;;;3.38;2.20;;;16.60;99.90;;;;;;5113950;28;20088;-74
2023/09/03 00:57:49;;;;;;;3.42;1.95;;;16.60;99.90;;;;;;5114132;28;20019;-73
2023/09/03 01:00:16;;;;;;;3.60;2.00;;;16.60;99.90;;;;;;5114191;28;20035;-74
2023/09/03 01:02:44;;;;;;;4.32;2.15;;;16.60;99.90;;;;;;5114014;28;20023;-74
2023/09/03 01:05:10;;;;;;;3.10;2.20;;;16.50;99.90;;;;;;5111524;28;20023;-74
2023/09/03 01:07:36;;;;;;;3.20;1.90;;;16.40;99.90;;;;;;5092859;28;20094;-74
2023/09/03 01:10:02;;;;;;;4.53;1.95;;;16.40;99.90;;;;;;5093244;28;20072;-74
2023/09/03 01:12:37;;;;;;;4.85;2.10;;;16.40;99.90;;;;;;5094256;28;20027;-74
2023/09/03 01:15:15;;;;;;;2.88;1.90;;;16.40;99.90;;;;;;5098256;28;20020;-74
2023/09/03 01:18:05;;;;;;;4.10;2.10;;;16.40;99.90;;;;;;5097929;28;20436;-74
2023/09/03 01:20:37;;;;;;;3.92;2.20;;;16.40;99.90;;;;;;5097452;28;20035;-74
2023/09/03 01:23:32;;;;;;;3.05;1.95;;;16.30;99.90;;;;;;5097523;28;20072;-74
2023/09/03 01:26:22;;;;;;;3.50;2.13;;;16.30;99.90;;;;;;5097603;28;20380;-73
2023/09/03 01:28:49;;;;;;;3.03;2.00;;;16.30;99.90;;;;;;5097866;28;20016;-74
2023/09/03 01:31:17;;;;;;;3.80;2.13;;;16.20;99.90;;;;;;5097668;28;20065;-73
2023/09/03 01:33:45;;;;;;;4.20;2.30;;;16.20;99.90;;;;;;5097608;28;20407;-74
2023/09/03 01:36:12;;;;;;;3.55;2.40;;;16.20;99.90;;;;;;5079581;28;20047;-74
2023/09/03 01:38:39;;;;;;;3.67;2.20;;;16.10;99.90;;;;;;5097001;28;20028;-74
2023/09/03 01:41:05;;;;;;;4.20;2.40;;;16.00;99.90;;;;;;5095432;28;20085;-74
2023/09/03 01:43:31;;;;;;;5.00;2.33;;;16.00;99.90;;;;;;5096355;28;20042;-74
2023/09/03 01:46:09;;;;;;;4.93;2.20;;;15.90;99.90;;;;;;5096251;28;20023;-74
2023/09/03 01:48:40;;;;;;;4.97;2.42;;;15.70;99.90;;;;;;5096292;28;20055;-74
2023/09/03 01:51:26;;;;;;;5.00;2.47;;;15.60;99.90;;;;;;5096685;28;20024;-74
2023/09/03 01:54:00;;;;;;;3.58;2.10;;;15.50;99.90;;;;;;5096923;28;20035;-74
2023/09/03 01:56:29;;;;;;;4.28;2.33;;;15.50;99.90;;;;;;5097160;28;20528;-74
2023/09/03 01:58:59;;;;;;;4.00;2.28;;;15.50;99.90;;;;;;5096787;28;20027;-74
2023/09/03 02:01:30;;;;;;;5.00;2.40;;;15.60;99.90;;;;;;5096643;28;20024;-74
2023/09/03 02:03:56;;;;;;;3.60;2.20;;;15.60;99.90;;;;;;5096713;28;20137;-73
2023/09/03 02:06:22;;;;;;;3.05;1.80;;;15.60;99.90;;;;;;5096608;28;20035;-73
2023/09/03 02:08:48;;;;;;;4.18;2.20;;;15.60;99.90;;;;;;5096677;28;20473;-74
2023/09/03 02:11:13;;;;;;;3.03;2.20;;;15.60;99.90;;;;;;5078534;28;20108;-74
2023/09/03 02:13:40;;;;;;;3.53;2.13;;;15.60;99.90;;;;;;5078427;28;20032;-74
2023/09/03 02:16:06;;;;;;;3.85;2.50;;;15.50;99.90;;;;;;5096413;28;20107;-74
2023/09/03 02:18:31;;;;;;;3.63;2.15;;;15.40;99.90;;;;;;5096589;28;20059;-74
2023/09/03 02:20:57;;;;;;;4.28;1.90;;;15.40;99.90;;;;;;5096347;28;20028;-74
2023/09/03 02:23:23;;;;;;;3.08;1.83;;;15.40;99.90;;;;;;5096313;28;20107;-74
2023/09/03 02:26:00;;;;;;;3.50;2.17;;;15.30;99.90;;;;;;5095445;28;20468;-74
2023/09/03 02:28:25;;;;;;;4.72;2.53;;;15.40;99.90;;;;;;5096541;28;20016;-73
2023/09/03 02:30:51;;;;;;;4.60;2.40;;;15.20;99.90;;;;;;5096098;28;20090;-74
2023/09/03 02:33:16;;;;;;;3.50;2.20;;;15.20;99.90;;;;;;5096438;28;20103;-74
2023/09/03 02:35:42;;;;;;;3.15;2.00;;;15.10;99.90;;;;;;5096357;28;20384;-74
2023/09/03 02:38:08;;;;;;;4.93;2.42;;;15.00;99.90;;;;;;5096312;28;20376;-73
2023/09/03 02:40:34;;;;;;;3.65;2.40;;;15.00;99.90;;;;;;5095891;28;20043;-73
2023/09/03 02:43:00;;;;;;;6.15;2.42;;;15.00;99.90;;;;;;5096230;28;20021;-74
2023/09/03 02:45:25;;;;;;;3.65;1.83;;;15.00;99.90;;;;;;5095804;28;20036;-74
2023/09/03 02:47:51;;;;;;;3.65;2.28;;;15.00;99.90;;;;;;5095830;28;20029;-74
2023/09/03 02:50:17;;;;;;;3.03;2.20;;;15.00;99.90;;;;;;5096053;28;20024;-73
2023/09/03 02:52:42;;;;;;;3.28;2.35;;;15.00;99.90;;;;;;5078042;28;20028;-74
2023/09/03 02:55:10;;;;;;;3.75;2.20;;;15.00;99.90;;;;;;5077478;28;20040;-74
2023/09/03 02:57:36;;;;;;;4.97;1.98;;;15.00;99.90;;;;;;5095709;28;20024;-74
2023/09/03 03:00:02;;;;;;;3.88;1.90;;;15.00;99.90;;;;;;5095787;28;20027;-74
2023/09/03 03:02:29;;;;;;;3.88;2.10;;;15.00;99.90;;;;;;5095814;28;20032;-73
2023/09/03 03:04:55;;;;;;;3.28;1.90;;;14.90;99.90;;;;;;5095672;28;20103;-74
2023/09/03 03:07:20;;;;;;;3.38;2.05;;;14.90;99.90;;;;;;5095444;28;20435;-74
2023/09/03 03:09:50;;;;;;;3.78;2.33;;;14.90;99.90;;;;;;5095352;28;20028;-74
2023/09/03 03:12:16;;;;;;;3.53;2.08;;;14.90;99.90;;;;;;5095215;28;20359;-74
2023/09/03 03:14:41;;;;;;;3.13;1.90;;;14.80;99.90;;;;;;5095338;28;20020;-74
2023/09/03 03:17:07;;;;;;;4.55;2.30;;;14.80;99.90;;;;;;5077188;28;20032;-74
2023/09/03 03:19:32;;;;;;;3.20;2.30;;;14.80;99.90;;;;;;5095203;28;20024;-74
2023/09/03 03:21:58;;;;;;;3.53;2.10;;;14.70;99.90;;;;;;5095062;28;20043;-74
2023/09/03 03:24:24;;;;;;;4.88;2.30;;;14.60;99.90;;;;;;5095418;28;20032;-73
2023/09/03 03:26:49;;;;;;;6.25;2.30;;;14.60;99.90;;;;;;5095366;28;20034;-74
2023/09/03 03:29:15;;;;;;;4.40;2.53;;;14.60;99.90;;;;;;5076905;28;20097;-73
2023/09/03 03:31:44;;;;;;;2.75;2.03;;;14.60;99.90;;;;;;5094966;28;20032;-74
2023/09/03 03:34:10;;;;;;;3.40;2.17;;;14.60;99.90;;;;;;5076748;28;20020;-74
2023/09/03 03:36:35;;;;;;;4.60;2.20;;;14.60;99.90;;;;;;5093982;28;20030;-74
2023/09/03 03:39:01;;;;;;;4.03;2.35;;;14.60;99.90;;;;;;5094711;28;20028;-74
2023/09/03 03:41:26;;;;;;;3.33;2.33;;;14.60;99.90;;;;;;5094992;28;20016;-74
2023/09/03 03:43:52;;;;;;;3.15;2.03;;;14.60;99.90;;;;;;5094992;28;20032;-74
2023/09/03 03:46:21;;;;;;;3.67;2.40;;;14.50;99.90;;;;;;5094566;28;20115;-74
2023/09/03 03:48:48;;;;;;;3.80;2.60;;;14.50;99.90;;;;;;5094583;28;20102;-74
2023/09/03 03:51:14;;;;;;;4.93;2.83;;;14.60;99.90;;;;;;5094590;28;20034;-74
2023/09/03 03:53:40;;;;;;;4.28;3.03;;;14.60;99.90;;;;;;5094373;28;20103;-74
2023/09/03 03:56:10;;;;;;;4.25;2.38;;;14.50;99.90;;;;;;5094542;28;20387;-74
2023/09/03 03:58:42;;;;;;;3.93;2.37;;;14.60;99.90;;;;;;5094508;28;20448;-74
2023/09/03 04:01:17;;;;;;;;;;;14.50;99.90;;;;;;5095090;28;20107;-73
2023/09/03 04:03:44;;;;;;;3.35;2.10;;;14.50;99.90;;;;;;5094781;28;19904;-74
2023/09/03 04:06:09;;;;;;;5.20;2.20;;;14.50;99.90;;;;;;5094216;28;20028;-74
2023/09/03 04:08:38;;;;;;;3.50;2.33;;;14.50;99.90;;;;;;5076105;28;20387;-74
2023/09/03 04:11:07;;;;;;;3.30;2.10;;;14.50;99.90;;;;;;5094178;28;20031;-74
2023/09/03 04:13:33;;;;;;;2.97;2.30;;;14.50;99.90;;;;;;5094409;28;20518;-74
2023/09/03 04:15:59;;;;;;;3.55;2.30;;;14.40;99.90;;;;;;5094351;28;20469;-74
2023/09/03 04:18:26;;;;;;;4.13;2.45;;;14.40;99.90;;;;;;5094067;28;20030;-74
2023/09/03 04:20:54;;;;;;;3.33;2.03;;;14.40;99.90;;;;;;5075767;28;20032;-73
2023/09/03 04:23:20;;;;;;;3.15;2.15;;;14.40;99.90;;;;;;5094340;28;20031;-74
2023/09/03 04:25:46;;;;;;;3.53;2.30;;;14.40;99.90;;;;;;5094230;28;20060;-74
2023/09/03 04:28:12;;;;;;;4.50;2.88;;;14.30;99.90;;;;;;5094186;28;20027;-74
2023/09/03 04:30:39;;;;;;;6.10;2.47;;;14.30;99.90;;;;;;5093875;28;20393;-74
2023/09/03 04:33:08;;;;;;;2.80;2.10;;;14.30;99.90;;;;;;5075911;28;20028;-73
2023/09/03 04:35:34;;;;;;;3.80;2.47;;;14.30;99.90;;;;;;5093728;28;20028;-74
2023/09/03 04:38:00;;;;;;;3.97;2.55;;;14.30;99.90;;;;;;5094062;28;20465;-73
2023/09/03 04:40:26;;;;;;;3.60;2.78;;;14.30;99.90;;;;;;5075541;28;20063;-73
2023/09/03 04:42:52;;;;;;;5.28;3.05;;;14.30;99.90;;;;;;5076121;28;20066;-74
2023/09/03 04:45:17;;;;;;;5.47;3.30;;;14.20;99.90;;;;;;5094171;28;20028;-74
2023/09/03 04:47:44;;;;;;;6.78;3.72;;;14.20;99.90;;;;;;5093790;28;20032;-73
2023/09/03 04:50:10;;;;;;;4.97;3.30;;;14.20;99.90;;;;;;5093519;28;20020;-73
2023/09/03 04:52:39;;;;;;;4.60;2.90;;;14.20;99.90;;;;;;5093839;28;20496;-73
2023/09/03 04:55:05;;;;;;;7.45;2.70;;;14.20;99.90;;;;;;5075381;28;20088;-73
2023/09/03 04:57:30;;;;;;;6.07;3.10;;;14.20;99.90;;;;;;5058882;28;20169;-73
2023/09/03 04:59:56;;;;;;;7.57;4.20;;;14.20;99.90;;;;;;5093430;28;20074;-73
2023/09/03 05:02:22;;;;;;;9.07;3.70;;;14.20;99.90;;;;;;5093441;28;20097;-73
2023/09/03 05:04:47;;;;;;;6.88;4.10;;;14.20;99.90;;;;;;5093290;28;20431;-73
2023/09/03 05:07:13;;;;;;;9.57;4.15;;;14.20;99.90;;;;;;5093936;28;20020;-73
2023/09/03 05:09:38;;;;;;;8.80;4.20;;;14.20;99.90;;;;;;5093495;28;20032;-73
2023/09/03 05:12:05;;;;;;;9.13;4.35;;;14.20;99.90;;;;;;5093423;28;20073;-73
2023/09/03 05:14:31;;;;;;;9.15;4.80;;;14.20;99.90;;;;;;5093329;28;20040;-73
2023/09/03 05:16:56;;;;;;;5.68;4.03;;;14.20;99.90;;;;;;5075208;28;20033;-73
2023/09/03 05:19:22;;;;;;;6.50;3.85;;;14.30;99.90;;;;;;5075418;28;20203;-72
2023/09/03 05:21:48;;;;;;;9.15;3.90;;;14.30;99.90;;;;;;5075810;28;20073;-73
2023/09/03 05:24:13;;;;;;;6.22;4.05;;;14.30;99.90;;;;;;5093911;28;20527;-72
2023/09/03 05:26:39;;;;;;;7.72;4.13;;;14.30;99.90;;;;;;5097595;28;20028;-73
2023/09/03 05:29:05;;;;;;;7.55;4.47;;;14.30;99.90;;;;;;5113397;28;20024;-72
2023/09/03 05:31:30;;;;;;;6.40;4.20;;;14.30;99.90;;;;;;5113811;28;20031;-72
2023/09/03 05:33:57;;;;;;;6.82;4.20;;;14.40;99.90;;;;;;5114070;28;20023;-73
2023/09/03 05:36:22;;;;;;;7.03;3.90;;;14.30;99.90;;;;;;5093889;28;20030;-73
2023/09/03 05:38:48;;;;;;;6.80;4.20;;;14.30;99.90;;;;;;5113492;28;20023;-73
2023/09/03 05:41:14;;;;;;;7.47;4.68;;;14.40;99.90;;;;;;5113479;28;20107;-73
2023/09/03 05:43:40;;;;;;;11.43;5.28;;;14.40;99.90;;;;;;5095496;28;20436;-73
2023/09/03 05:46:05;;;;;;;5.60;4.30;;;14.40;99.90;;;;;;5113427;28;20036;-72
2023/09/03 05:48:31;;;;;;;6.57;4.15;;;14.40;99.90;;;;;;5113443;28;20023;-73
2023/09/03 05:50:59;;;;;;;5.57;4.18;;;14.40;99.90;;;;;;5113170;28;20028;-72
2023/09/03 05:53:25;;;;;;;6.20;4.32;;;14.40;99.90;;;;;;5113208;28;20502;-73
2023/09/03 05:55:50;;;;;;;5.72;3.45;;;14.40;99.90;;;;;;5113568;28;20189;-73
2023/09/03 05:58:16;;;;;;;5.97;3.75;;;14.40;99.90;;;;;;5113339;28;20024;-73
2023/09/03 06:00:42;;;;;;;5.97;3.72;;;14.50;99.90;;;;;;5114822;28;20031;-73
2023/09/03 06:03:08;;;;;;;4.70;3.25;;;14.50;99.90;;;;;;5117039;28;20063;-73
2023/09/03 06:05:34;;;;;;;4.90;3.35;;;14.50;99.90;;;;;;5098892;28;20027;-73
2023/09/03 06:08:00;;;;;;;5.70;3.65;;;14.50;99.90;;;;;;5117021;28;20169;-73
2023/09/03 06:10:26;;;;;;;4.65;3.30;;;14.50;99.90;;;;;;5116849;28;20024;-73
2023/09/03 06:12:52;;;;;;;4.22;3.10;;;14.60;99.90;;;;;;5116876;28;20125;-73
2023/09/03 06:15:18;;;;;;;4.47;3.30;;;14.60;99.90;;;;;;5116862;28;20093;-73
2023/09/03 06:17:49;;;;;;;4.78;3.00;;;14.60;99.90;;;;;;5117037;28;20055;-73
2023/09/03 06:20:15;;;;;;;5.57;3.50;;;14.60;99.90;;;;;;5115700;28;20024;-73
2023/09/03 06:22:40;;;;;;;4.13;2.55;;;14.50;99.90;;;;;;5102432;28;20530;-73
2023/09/03 06:25:06;;;;;;;3.90;2.97;;;14.50;99.90;;;;;;5116093;28;20074;-73
2023/09/03 06:27:33;;;;;;;4.55;3.33;;;14.60;99.90;;;;;;5098328;28;20031;-73
2023/09/03 06:29:58;;;;;;;4.07;2.80;;;14.60;99.90;;;;;;5114203;28;20034;-73
2023/09/03 06:32:24;;;;;;;3.97;2.75;;;14.60;99.90;;;;;;5097189;28;20023;-73
2023/09/03 06:34:50;;;;;;;4.20;2.60;;;14.70;99.90;;;;;;5116343;28;20030;-73
2023/09/03 06:37:16;;;;;;;3.38;2.28;;;14.70;99.90;;;;;;5115295;28;20028;-73
2023/09/03 06:39:41;;;;;;;3.38;2.25;;;14.80;99.90;;;;;;5116118;28;20055;-73
2023/09/03 06:42:08;;;;;;;3.13;2.40;;;14.80;99.90;;;;;;5116273;28;20059;-73
2023/09/03 06:44:34;;;;;;;3.40;2.45;;;14.90;99.90;;;;;;5116241;28;20020;-73
2023/09/03 06:47:00;;;;;;;3.75;2.53;;;14.90;99.90;;;;;;5116337;28;20117;-73
2023/09/03 06:49:26;;;;;;;3.58;2.50;;;15.00;99.90;;;;;;5098132;28;20384;-72
2023/09/03 06:51:52;;;;;;;3.20;2.20;;;15.00;99.90;;;;;;5116191;28;20027;-73
2023/09/03 06:54:17;;;;;;;3.30;2.53;;;15.10;99.90;;;;;;5115972;28;20028;-73
2023/09/03 06:56:43;;;;;;;3.33;2.40;;;15.20;99.90;;;;;;5116085;28;20056;-73
2023/09/03 06:59:09;;;;;;;3.25;2.15;;;15.20;99.90;;;;;;5097909;28;20020;-73
2023/09/03 07:01:34;;;;;;;4.60;3.15;;;15.30;99.90;;;;;;5115932;28;20023;-73
2023/09/03 07:04:00;;;;;;;4.90;3.10;;;15.40;99.90;;;;;;5115899;28;20028;-73
2023/09/03 07:06:25;;;;;;;3.90;2.80;;;15.40;99.90;;;;;;5116155;28;20034;-73
2023/09/03 07:08:52;;;;;;;5.50;3.70;;;15.40;99.90;;;;;;5115805;28;20030;-73
2023/09/03 07:11:18;;;;;;;5.70;3.22;;;15.50;99.90;;;;;;5115481;28;20020;-73
2023/09/03 07:13:44;;;;;;;5.45;3.47;;;15.50;99.90;;;;;;5115750;28;20054;-73
2023/09/03 07:16:09;;;;;;;4.85;3.00;;;15.60;99.90;;;;;;5115822;28;20062;-73
2023/09/03 07:18:35;;;;;;;4.75;3.03;;;15.60;99.90;;;;;;5115722;28;20028;-73
2023/09/03 07:21:05;;;;;;;5.68;4.13;;;15.70;99.90;;;;;;5097350;28;20160;-73
2023/09/03 07:23:31;;;;;;;5.80;3.70;;;15.80;99.90;;;;;;5115628;28;20027;-73
2023/09/03 07:26:08;;;;;;;4.95;3.10;;;15.80;99.90;;;;;;5097099;28;20035;-73
2023/09/03 07:28:34;;;;;;;5.60;3.67;;;15.90;99.90;;;;;;5115792;28;20026;-73
2023/09/03 07:31:00;;;;;;;3.97;3.00;;;15.90;99.90;;;;;;5115618;28;20388;-73
2023/09/03 07:33:25;;;;;;;5.07;3.30;;;16.00;99.90;;;;;;5115208;28;20028;-73
2023/09/03 07:35:51;;;;;;;5.15;3.05;;;16.10;99.90;;;;;;5115355;28;20035;-73
2023/09/03 07:38:17;;;;;;;3.80;2.55;;;16.10;99.90;;;;;;5115300;28;20031;-73
2023/09/03 07:40:43;;;;;;;5.18;3.13;;;16.20;99.90;;;;;;5115374;28;20020;-73
2023/09/03 07:43:09;;;;;;;6.40;3.60;;;16.30;99.90;;;;;;5115181;28;20065;-73
2023/09/03 07:45:34;;;;;;;4.93;3.70;;;16.30;99.90;;;;;;5115054;28;20076;-73
2023/09/03 07:48:00;;;;;;;4.70;3.45;;;16.40;99.90;;;;;;5096841;28;20051;-73
2023/09/03 07:50:31;;;;;;;5.13;3.17;;;16.40;99.90;;;;;;5114955;28;20073;-73
2023/09/03 07:52:58;;;;;;;7.13;3.78;;;16.50;99.90;;;;;;5115168;28;20468;-73
2023/09/03 07:55:24;;;;;;;4.78;3.22;;;16.60;99.90;;;;;;5115232;28;20502;-73
2023/09/03 07:57:49;;;;;;;6.88;3.25;;;16.60;99.90;;;;;;5115217;28;20027;-73
2023/09/03 08:00:15;;;;;;;5.40;3.67;;;16.70;99.90;;;;;;5096613;28;20119;-73
2023/09/03 08:02:41;;;;;;;5.60;3.80;;;16.80;99.90;;;;;;5114823;28;20039;-73
2023/09/03 08:05:11;;;;;;;4.80;3.03;;;16.80;99.90;;;;;;5114724;28;20091;-73
2023/09/03 08:07:36;;;;;;;4.95;3.25;;;16.90;99.90;;;;;;5115297;28;20016;-73
2023/09/03 08:10:02;;;;;;;5.68;3.10;;;17.00;99.90;;;;;;5115008;28;20026;-73
2023/09/03 08:12:28;;;;;;;6.53;3.50;;;17.10;99.90;;;;;;5114877;28;20051;-73
2023/09/03 08:14:54;;;;;;;3.88;3.25;;;17.20;99.90;;;;;;5114649;28;20105;-73
2023/09/03 08:17:21;;;;;;;5.47;3.88;;;17.40;99.90;;;;;;5096390;28;20024;-73
2023/09/03 08:19:48;;;;;;;5.85;4.18;;;17.40;99.90;;;;;;5096259;28;20039;-73
2023/09/03 08:22:13;;;;;;;6.90;4.40;;;17.60;99.90;;;;;;5114774;28;20376;-73
2023/09/03 08:24:39;;;;;;;5.50;3.08;;;17.70;99.90;;;;;;5113892;28;20032;-74
2023/09/03 08:27:05;;;;;;;5.70;3.55;;;17.80;99.90;;;;;;5114335;28;20031;-74
2023/09/03 08:29:30;;;;;;;4.72;3.17;;;17.90;99.90;;;;;;5114399;28;20023;-74
2023/09/03 08:31:59;;;;;;;5.57;4.07;;;17.90;99.90;;;;;;5096255;28;20031;-74
2023/09/03 08:34:24;;;;;;;4.82;3.38;;;18.00;99.90;;;;;;5096005;28;20387;-74
2023/09/03 08:36:50;;;;;;;6.88;4.03;;;18.10;99.90;;;;;;5114429;28;20069;-73
2023/09/03 08:39:16;;;;;;;5.22;4.07;;;18.20;99.90;;;;;;5114171;28;20515;-73
2023/09/03 08:41:43;;;;;;;6.93;4.00;;;18.30;99.90;;;;;;5114205;28;20476;-73
2023/09/03 08:44:22;;;;;;;5.10;3.78;;;18.50;99.90;;;;;;5114075;28;20038;-73
2023/09/03 08:46:50;;;;;;;5.47;3.40;;;18.60;99.90;;;;;;5114650;28;20034;-73
2023/09/03 08:49:16;;;;;;;6.60;4.45;;;18.70;99.90;;;;;;5114581;28;20023;-73
2023/09/03 08:51:42;;;;;;;6.90;4.10;;;18.80;99.90;;;;;;5095941;28;20032;-74
2023/09/03 08:54:08;;;;;;;6.53;4.40;;;18.90;99.90;;;;;;5113883;28;20038;-74
2023/09/03 08:56:34;;;;;;;6.97;4.18;;;19.00;99.90;;;;;;5095697;28;20027;-74
2023/09/03 08:59:00;;;;;;;7.15;4.45;;;19.20;99.90;;;;;;5113949;28;20081;-74
2023/09/03 09:01:29;;;;;;;5.25;3.42;;;19.30;99.90;;;;;;5095626;28;20036;-74
2023/09/03 09:03:59;;;;;;;5.70;3.50;;;19.40;99.90;;;;;;5113869;28;20037;-73
2023/09/03 09:06:25;;;;;;;5.13;3.33;;;19.50;99.90;;;;;;5095608;28;20030;-73
2023/09/03 09:08:51;;;;;;;5.72;3.40;;;19.60;99.90;;;;;;5095692;28;20439;-74
2023/09/03 09:11:19;;;;;;;7.10;3.33;;;19.70;99.90;;;;;;5113808;28;20015;-74
2023/09/03 09:13:55;;;;;;;7.03;3.60;;;19.90;99.90;;;;;;5113797;28;20540;-74
2023/09/03 09:16:21;;;;;;;5.45;4.10;;;20.10;99.90;;;;;;5114143;28;20024;-74
2023/09/03 09:18:47;;;;;;;4.43;3.22;;;20.30;99.90;;;;;;5113706;28;20039;-74
2023/09/03 09:21:12;;;;;;;4.10;3.22;;;20.40;99.90;;;;;;5113756;28;20082;-74
2023/09/03 09:23:38;;;;;;;6.00;3.67;;;20.50;99.90;;;;;;5113961;28;20020;-74
2023/09/03 09:26:22;;;;;;;5.50;3.63;;;20.60;99.90;;;;;;5113688;28;20031;-74
2023/09/03 09:29:02;;;;;;;4.53;3.63;;;20.70;99.90;;;;;;5095456;28;20028;-74
2023/09/03 09:31:34;;;;;;;4.93;3.75;;;20.80;99.90;;;;;;5113854;28;20028;-74
2023/09/03 09:34:10;;;;;;;5.60;3.60;;;21.00;99.90;;;;;;5114470;28;20028;-74
2023/09/03 09:36:36;;;;;;;4.97;3.58;;;21.10;99.90;;;;;;5117684;28;20016;-74
2023/09/03 09:39:06;;;;;;;7.75;4.30;;;21.20;99.90;;;;;;5117642;28;20365;-74
2023/09/03 09:41:37;;;;;;;4.43;3.70;;;21.30;99.90;;;;;;5117486;28;20172;-74
2023/09/03 09:44:07;;;;;;;;;;;21.40;99.90;;;;;;5118553;28;20039;-74
2023/09/03 09:46:35;;;;;;;3.92;3.50;;;21.50;99.90;;;;;;5117658;28;20298;-74
2023/09/03 09:49:02;;;;;;;5.18;3.40;;;21.70;99.90;;;;;;5117410;28;20035;-74
2023/09/03 09:51:29;;;;;;;5.75;4.05;;;21.80;99.90;;;;;;5117296;28;20027;-73
2023/09/03 09:53:57;;;;;;;4.90;3.30;;;21.90;99.90;;;;;;5117371;28;20046;-73
2023/09/03 09:56:30;;;;;;;4.70;3.35;;;22.00;99.90;;;;;;5098928;28;20030;-74
2023/09/03 09:58:59;;;;;;;6.50;3.60;;;22.00;99.90;;;;;;5117379;28;20031;-73
2023/09/03 10:01:27;;;;;;;4.72;3.47;;;22.10;99.90;;;;;;5117127;28;20387;-73
2023/09/03 10:03:53;;;;;;;6.00;3.20;;;22.10;99.90;;;;;;5117233;28;20107;-73
2023/09/03 10:06:22;;;;;;;5.28;2.75;;;22.10;99.90;;;;;;5117078;28;20030;-73
2023/09/03 10:08:51;;;;;;;3.22;1.98;;;22.10;99.90;;;;;;5117123;28;20012;-73
2023/09/03 10:11:19;;;;;;;3.22;1.90;;;22.20;99.90;;;;;;5117033;28;20058;-74
2023/09/03 10:13:46;;;;;;;5.85;2.28;;;22.40;99.90;;;;;;5116950;28;20024;-73
2023/09/03 10:16:15;;;;;;;4.95;2.17;;;22.70;99.90;;;;;;5116879;28;20165;-73
2023/09/03 10:18:49;;;;;;;3.53;2.15;;;22.80;99.90;;;;;;5116943;28;20516;-73
2023/09/03 10:21:24;;;;;;;3.65;1.90;;;23.00;99.90;;;;;;5117096;28;20384;-73
2023/09/03 10:23:51;;;;;;;3.78;2.33;;;23.10;99.90;;;;;;5116911;28;20149;-73
2023/09/03 10:26:24;;;;;;;4.10;2.28;;;23.20;99.90;;;;;;5116979;28;20532;-73
2023/09/03 10:28:52;;;;;;;3.95;2.85;;;23.20;99.90;;;;;;5117036;28;20109;-73
2023/09/03 10:31:19;;;;;;;4.05;2.45;;;23.10;99.90;;;;;;5116585;28;20019;-74
2023/09/03 10:33:45;;;;;;;3.97;2.20;;;23.10;99.90;;;;;;5116607;28;20463;-73
2023/09/03 10:36:21;;;;;;;5.80;2.53;;;23.00;99.90;;;;;;5116538;28;20080;-73
2023/09/03 10:38:47;;;;;;;4.95;2.65;;;23.00;99.90;;;;;;5116474;28;20015;-73
2023/09/03 10:41:22;;;;;;;5.53;2.50;;;22.90;99.90;;;;;;5116479;28;20429;-73
2023/09/03 10:43:50;;;;;;;4.15;2.40;;;22.90;99.90;;;;;;5116357;28;20025;-73
2023/09/03 10:46:17;;;;;;;3.70;2.40;;;22.80;99.90;;;;;;5115604;28;20027;-73
2023/09/03 10:48:57;;;;;;;3.67;2.25;;;22.80;99.90;;;;;;5116885;28;20027;-74
2023/09/03 10:51:34;;;;;;;3.25;2.45;;;22.80;99.90;;;;;;5116258;28;20024;-74
2023/09/03 10:54:20;;;;;;;4.43;2.45;;;22.90;99.90;;;;;;5116119;28;20040;-75
2023/09/03 10:57:16;;;;;;;4.05;2.25;;;22.90;99.90;;;;;;5116218;28;20054;-75
2023/09/03 11:00:02;;;;;;;2.83;1.92;;;23.10;99.90;;;;;;5103068;28;20035;-74
2023/09/03 11:02:29;;;;;;;4.28;2.00;;;23.30;99.90;;;;;;5116720;28;20027;-75
2023/09/03 11:05:14;;;;;;;4.47;1.90;;;23.40;99.90;;;;;;5115879;28;20053;-74
2023/09/03 11:07:41;;;;;;;3.78;2.20;;;23.50;99.90;;;;;;5115892;28;20022;-74
2023/09/03 11:10:37;;;;;;;3.60;1.80;;;23.50;99.90;;;;;;5115811;28;20024;-73
2023/09/03 11:13:07;;;;;;;3.83;1.80;;;23.50;99.90;;;;;;5102403;28;20042;-74
2023/09/03 11:15:33;;;;;;;3.17;1.80;;;23.50;99.90;;;;;;5097485;28;20494;-74
2023/09/03 11:18:00;;;;;;;3.67;2.17;;;23.50;99.90;;;;;;5115708;28;20032;-75
2023/09/03 11:20:29;;;;;;;3.83;1.80;;;23.60;99.90;;;;;;5115698;28;20031;-75
2023/09/03 11:22:56;;;;;;;3.85;1.58;;;23.70;99.90;;;;;;5116146;28;20031;-75
2023/09/03 11:25:37;;;;;;;3.25;1.80;;;23.80;99.90;;;;;;5115616;28;20043;-75
2023/09/03 11:28:08;;;;;;;2.92;1.73;;;23.90;99.90;;;;;;5115580;28;20024;-75
2023/09/03 11:30:35;;;;;;;5.00;1.88;;;24.00;99.90;;;;;;5115417;28;20030;-75
2023/09/03 11:33:01;;;;;;;3.00;1.90;;;24.10;99.90;;;;;;5097386;28;20081;-75
2023/09/03 11:35:37;;;;;;;3.28;2.05;;;24.20;99.90;;;;;;5115440;28;20038;-76
2023/09/03 11:38:04;;;;;;;3.95;1.92;;;24.30;99.90;;;;;;5115540;28;20383;-74
2023/09/03 11:40:31;;;;;;;3.38;1.90;;;24.30;99.90;;;;;;5115292;28;20449;-75
2023/09/03 11:42:58;;;;;;;3.35;1.58;;;24.30;99.90;;;;;;5116000;28;20487;-75
2023/09/03 11:45:29;;;;;;;6.68;2.20;;;24.40;99.90;;;;;;5097132;28;20076;-76
2023/09/03 11:47:55;;;;;;;5.40;1.90;;;24.50;99.90;;;;;;5116957;28;20023;-76
2023/09/03 11:50:22;;;;;;;3.45;1.90;;;24.60;99.90;;;;;;5098775;28;20043;-75
2023/09/03 11:52:58;;;;;;;3.13;1.70;;;24.60;99.90;;;;;;5098389;28;20107;-76
2023/09/03 11:55:30;;;;;;;2.33;1.55;;;24.60;99.90;;;;;;5116806;28;20035;-75
2023/09/03 11:58:00;;;;;;;6.72;2.40;;;24.60;99.90;;;;;;5115426;28;20050;-75
2023/09/03 12:00:28;;;;;;;3.42;2.10;;;24.50;99.90;;;;;;5115773;28;20023;-76
2023/09/03 12:02:56;;;;;;;3.25;2.03;;;24.50;99.90;;;;;;5116993;28;20028;-76
2023/09/03 12:05:23;;;;;;;7.53;1.88;;;24.50;99.90;;;;;;5116723;28;20054;-76
2023/09/03 12:07:49;;;;;;;2.67;2.10;;;24.40;99.90;;;;;;5115930;28;20031;-76
2023/09/03 12:10:19;;;;;;;4.13;2.10;;;24.40;99.90;;;;;;5116045;28;20392;-75
2023/09/03 12:12:46;;;;;;;2.60;1.70;;;24.40;99.90;;;;;;5115670;28;20098;-76
2023/09/03 12:15:20;;;;;;;3.10;1.80;;;24.40;99.90;;;;;;5116291;28;20466;-75
2023/09/03 12:17:47;;;;;;;3.28;1.85;;;24.40;99.90;;;;;;5098206;28;20027;-75
2023/09/03 12:20:35;;;;;;;2.67;1.73;;;24.30;99.90;;;;;;5115844;28;20032;-75
2023/09/03 12:23:15;;;;;;;5.45;1.75;;;24.20;99.90;;;;;;5096997;28;20049;-75
2023/09/03 12:25:43;;;;;;;3.92;1.98;;;24.10;99.90;;;;;;5115129;28;20027;-75
2023/09/03 12:28:10;;;;;;;4.10;1.73;;;24.10;99.90;;;;;;5116155;28;20145;-75
2023/09/03 12:30:59;;;;;;;5.25;1.80;;;24.00;99.90;;;;;;5116558;28;20024;-75
2023/09/03 12:33:27;;;;;;;5.20;1.88;;;23.90;99.90;;;;;;5116306;28;20020;-76
2023/09/03 12:36:14;;;;;;;3.55;1.77;;;23.90;99.90;;;;;;5116380;28;20019;-75
2023/09/03 12:38:58;;;;;;;3.58;1.85;;;23.90;99.90;;;;;;5112957;28;20035;-74
2023/09/03 12:41:26;;;;;;;5.25;2.00;;;24.00;99.90;;;;;;5113792;28;20035;-75
2023/09/03 12:43:54;;;;;;;3.85;1.77;;;24.00;99.90;;;;;;5097251;28;20036;-75
2023/09/03 12:46:21;;;;;;;2.83;1.60;;;24.00;99.90;;;;;;5096524;28;20395;-75
2023/09/03 12:48:47;;;;;;;6.80;1.73;;;24.00;99.90;;;;;;5095695;28;20038;-73
2023/09/03 12:51:16;;;;;;;3.03;1.80;;;24.10;99.40;;;;;;5095985;28;20048;-72
2023/09/03 12:53:47;;;;;;;4.25;1.92;;;24.20;99.90;;;;;;5113919;28;20552;-73